Time;durP1;ratioP1;P1;durP2;ratioP2;P2;SDS_P1;SDS_P2;PMS_P1;PMS_P2;Temp;Humidity;BMP_temperature;BMP_pressure;BME280_temperature;BME280_humidity;BME280_pressure;Samples;Min_cycle;Max_cycle;Signal;HPM_P1;HPM_P2
2021/12/13 00:01:39;;;;;;;5.90;4.57;;;16.70;99.90;;;;;;4198659;28;20219;-80
2021/12/13 00:03:47;;;;;;;4.38;3.55;;;16.60;99.90;;;;;;4198635;28;20214;-80
2021/12/13 00:05:53;;;;;;;5.57;4.38;;;16.70;99.90;;;;;;4198397;28;20265;-79
2021/12/13 00:08:03;;;;;;;5.47;4.25;;;16.60;99.90;;;;;;4198632;28;20219;-80
2021/12/13 00:10:11;;;;;;;6.35;4.45;;;16.60;99.90;;;;;;4198341;28;20268;-80
2021/12/13 00:12:21;;;;;;;4.65;4.13;;;16.70;99.90;;;;;;4198714;28;20651;-80
2021/12/13 00:14:27;;;;;;;4.47;3.97;;;16.60;99.90;;;;;;4198528;28;20280;-80
2021/12/13 00:16:34;;;;;;;5.45;4.72;;;16.60;99.90;;;;;;4198704;28;20207;-80
2021/12/13 00:18:39;;;;;;;4.95;4.05;;;16.60;99.90;;;;;;4190964;28;20270;-79
2021/12/13 00:20:45;;;;;;;4.40;4.00;;;16.60;99.90;;;;;;4181966;28;20215;-79
2021/12/13 00:22:52;;;;;;;7.47;4.75;;;16.60;99.90;;;;;;4182041;28;20220;-80
2021/12/13 00:25:05;;;;;;;5.03;3.72;;;16.60;99.90;;;;;;4182358;28;20211;-80
2021/12/13 00:27:14;;;;;;;5.78;4.22;;;16.60;99.90;;;;;;4182316;28;20599;-80
2021/12/13 00:29:20;;;;;;;4.95;4.28;;;16.60;99.90;;;;;;4181502;28;20215;-79
2021/12/13 00:31:29;;;;;;;4.88;4.38;;;16.60;99.90;;;;;;4186524;28;20713;-79
2021/12/13 00:33:38;;;;;;;5.32;4.35;;;16.60;99.90;;;;;;4197907;28;20260;-80
2021/12/13 00:35:48;;;;;;;5.13;4.32;;;16.60;99.90;;;;;;4197929;28;20277;-79
2021/12/13 00:37:53;;;;;;;4.95;4.35;;;16.60;99.90;;;;;;4198244;28;20264;-79
2021/12/13 00:40:01;;;;;;;4.97;4.45;;;16.60;99.90;;;;;;4197980;28;20612;-80
2021/12/13 00:42:06;;;;;;;4.88;4.30;;;16.60;99.90;;;;;;4198319;28;20273;-80
2021/12/13 00:44:15;;;;;;;4.90;4.20;;;16.60;99.90;;;;;;4197817;28;20257;-80
2021/12/13 00:46:19;;;;;;;5.53;4.70;;;16.60;99.90;;;;;;4198306;28;20211;-80
2021/12/13 00:48:22;;;;;;;4.70;4.20;;;16.60;99.90;;;;;;4198522;28;20215;-79
2021/12/13 00:50:30;;;;;;;4.60;4.10;;;16.60;99.90;;;;;;4198197;28;20260;-80
2021/12/13 00:52:34;;;;;;;5.63;4.45;;;16.60;99.90;;;;;;4198354;28;20218;-79
2021/12/13 00:54:39;;;;;;;4.38;3.97;;;16.60;99.90;;;;;;4197685;28;20230;-80
2021/12/13 00:57:13;;;;;;;5.22;4.30;;;16.60;99.90;;;;;;4198390;28;20274;-80
2021/12/13 00:59:22;;;;;;;5.07;4.18;;;16.60;99.90;;;;;;4193616;28;20724;-80
2021/12/13 01:01:25;;;;;;;4.95;4.28;;;16.60;99.90;;;;;;4184079;28;20257;-80
2021/12/13 01:03:33;;;;;;;5.43;4.78;;;16.60;99.90;;;;;;4181293;28;20564;-80
2021/12/13 01:06:11;;;;;;;6.18;4.43;;;16.60;99.90;;;;;;4181279;28;20211;-80
2021/12/13 01:08:21;;;;;;;5.75;4.82;;;16.60;99.90;;;;;;4167943;28;20261;-80
2021/12/13 01:10:50;;;;;;;5.03;4.50;;;16.60;99.90;;;;;;4181021;28;20215;-80
2021/12/13 01:12:55;;;;;;;6.32;4.60;;;16.60;99.90;;;;;;4183718;28;20215;-79
2021/12/13 01:15:03;;;;;;;4.75;3.92;;;16.60;99.90;;;;;;4184674;28;20243;-79
2021/12/13 01:17:16;;;;;;;4.47;4.05;;;16.60;99.90;;;;;;4197396;28;20206;-80
2021/12/13 01:19:32;;;;;;;4.65;3.90;;;16.60;99.90;;;;;;4200421;28;20260;-80
2021/12/13 01:21:42;;;;;;;4.72;4.13;;;16.60;99.90;;;;;;4184638;28;20215;-80
2021/12/13 01:23:52;;;;;;;5.88;4.93;;;16.60;99.90;;;;;;4184950;28;20218;-79
2021/12/13 01:26:02;;;;;;;6.20;4.40;;;16.60;99.90;;;;;;4184655;28;20609;-80
2021/12/13 01:28:10;;;;;;;5.20;4.68;;;16.60;99.90;;;;;;4184943;28;20660;-79
2021/12/13 01:30:15;;;;;;;5.22;4.57;;;16.60;99.90;;;;;;4184382;28;20293;-79
2021/12/13 01:32:18;;;;;;;5.55;4.60;;;16.60;99.90;;;;;;4196749;28;20617;-80
2021/12/13 01:34:23;;;;;;;5.70;4.25;;;16.50;99.90;;;;;;4201056;28;20268;-80
2021/12/13 01:36:32;;;;;;;4.90;4.40;;;16.60;99.90;;;;;;4201114;28;20256;-80
2021/12/13 01:38:37;;;;;;;5.28;4.65;;;16.50;99.90;;;;;;4184627;28;20257;-80
2021/12/13 01:40:43;;;;;;;4.97;4.00;;;16.50;99.90;;;;;;4184281;28;20406;-80
2021/12/13 01:42:54;;;;;;;4.53;4.10;;;16.50;99.90;;;;;;4184319;28;20219;-79
2021/12/13 01:45:01;;;;;;;4.93;4.43;;;16.60;99.90;;;;;;4184240;28;20258;-79
2021/12/13 01:47:07;;;;;;;5.10;4.22;;;16.50;99.90;;;;;;4184913;28;20602;-80
2021/12/13 01:49:11;;;;;;;5.07;4.40;;;16.50;99.90;;;;;;4184553;28;20220;-80
2021/12/13 01:51:16;;;;;;;5.65;4.40;;;16.60;99.90;;;;;;4184099;28;20211;-80
2021/12/13 01:53:29;;;;;;;4.63;4.22;;;16.50;99.90;;;;;;4184484;28;20216;-80
2021/12/13 01:55:37;;;;;;;4.55;4.10;;;16.60;99.90;;;;;;4184190;28;20239;-79
2021/12/13 01:57:48;;;;;;;5.10;4.28;;;16.50;99.90;;;;;;4184808;28;20219;-79
2021/12/13 01:59:56;;;;;;;5.05;4.40;;;16.50;99.90;;;;;;4183690;28;20216;-80
2021/12/13 02:02:08;;;;;;;5.00;4.40;;;16.60;99.90;;;;;;4184014;28;20556;-80
2021/12/13 02:04:14;;;;;;;5.22;4.72;;;16.50;99.90;;;;;;4184140;28;20608;-80
2021/12/13 02:06:24;;;;;;;5.70;4.47;;;16.60;99.90;;;;;;4184410;28;20216;-79
2021/12/13 02:08:28;;;;;;;6.22;4.47;;;16.50;99.90;;;;;;4184334;28;20265;-79
2021/12/13 02:10:38;;;;;;;5.05;4.10;;;16.50;99.90;;;;;;4184654;28;20265;-79
2021/12/13 02:12:43;;;;;;;5.05;4.40;;;16.50;99.90;;;;;;4183895;28;20223;-80
2021/12/13 02:14:50;;;;;;;5.38;4.78;;;16.50;99.90;;;;;;4183956;28;20239;-79
2021/12/13 02:17:01;;;;;;;5.07;4.57;;;16.50;99.90;;;;;;4194710;28;20257;-80
2021/12/13 02:19:05;;;;;;;5.30;4.43;;;16.50;99.90;;;;;;4200115;28;20729;-79
2021/12/13 02:21:16;;;;;;;6.38;4.63;;;16.50;99.90;;;;;;4200258;28;20219;-80
2021/12/13 02:23:21;;;;;;;6.38;4.80;;;16.50;99.90;;;;;;4200108;28;20268;-79
2021/12/13 02:25:28;;;;;;;6.38;4.50;;;16.50;99.90;;;;;;4200475;28;20706;-80
2021/12/13 02:27:34;;;;;;;4.97;4.22;;;16.50;99.90;;;;;;4200421;28;20227;-79
2021/12/13 02:29:38;;;;;;;5.30;4.30;;;16.50;99.90;;;;;;4199969;28;20211;-80
2021/12/13 02:31:41;;;;;;;4.90;4.38;;;16.50;99.90;;;;;;4200137;28;20269;-79
2021/12/13 02:33:47;;;;;;;5.35;4.85;;;16.50;99.90;;;;;;4200092;28;20261;-80
2021/12/13 02:35:53;;;;;;;5.03;4.43;;;16.50;99.90;;;;;;4200261;28;20692;-79
2021/12/13 02:37:58;;;;;;;5.28;4.40;;;16.60;99.90;;;;;;4199854;28;20220;-80
2021/12/13 02:40:03;;;;;;;4.72;4.22;;;16.50;99.90;;;;;;4199575;28;20230;-80
2021/12/13 02:42:09;;;;;;;4.88;4.30;;;16.50;99.90;;;;;;4199609;28;20606;-80
2021/12/13 02:44:23;;;;;;;4.88;4.10;;;16.50;99.90;;;;;;4199560;28;20218;-79
2021/12/13 02:46:26;;;;;;;5.13;4.63;;;16.50;99.90;;;;;;4199427;28;20219;-80
2021/12/13 02:48:32;;;;;;;6.45;4.57;;;16.50;99.90;;;;;;4199779;28;20329;-80
2021/12/13 02:50:42;;;;;;;4.80;4.30;;;16.50;99.90;;;;;;4199978;28;20265;-80
2021/12/13 02:52:45;;;;;;;6.07;4.57;;;16.50;99.90;;;;;;4199929;28;20219;-80
2021/12/13 02:54:50;;;;;;;5.25;4.75;;;16.50;99.90;;;;;;4199939;28;20215;-80
2021/12/13 02:56:58;;;;;;;5.22;4.40;;;16.50;99.90;;;;;;4199701;28;20227;-80
2021/12/13 02:59:04;;;;;;;5.43;4.05;;;16.50;99.90;;;;;;4199929;28;20211;-80
2021/12/13 03:01:11;;;;;;;4.75;4.18;;;16.50;99.90;;;;;;4199829;28;20211;-80
2021/12/13 03:03:17;;;;;;;6.60;4.18;;;16.50;99.90;;;;;;4188936;28;20203;-80
2021/12/13 03:05:23;;;;;;;5.95;4.60;;;16.50;99.90;;;;;;4183139;28;20269;-80
2021/12/13 03:07:30;;;;;;;6.57;4.53;;;16.50;99.90;;;;;;4183187;28;20222;-80
2021/12/13 03:09:36;;;;;;;5.72;4.40;;;16.50;99.90;;;;;;4183171;28;20274;-79
2021/12/13 03:11:38;;;;;;;5.85;4.45;;;16.50;99.90;;;;;;4183148;28;20265;-79
2021/12/13 03:13:42;;;;;;;5.45;4.43;;;16.50;99.90;;;;;;4183209;28;20606;-80
2021/12/13 03:15:49;;;;;;;5.68;4.65;;;16.50;99.90;;;;;;4183992;28;20243;-80
2021/12/13 03:17:56;;;;;;;5.63;4.18;;;16.50;99.90;;;;;;4199327;28;20222;-80
2021/12/13 03:20:25;;;;;;;5.00;4.50;;;16.50;99.90;;;;;;4199734;28;20260;-80
2021/12/13 03:22:58;;;;;;;5.10;4.22;;;16.50;99.90;;;;;;4199530;28;20616;-79
2021/12/13 03:25:15;;;;;;;6.13;4.47;;;16.50;99.90;;;;;;4199600;28;20266;-80
2021/12/13 03:27:42;;;;;;;5.22;4.60;;;16.50;99.90;;;;;;4199531;28;20215;-80
2021/12/13 03:29:58;;;;;;;5.30;4.43;;;16.50;99.90;;;;;;4190440;28;20243;-80
2021/12/13 03:32:00;;;;;;;4.80;4.32;;;16.50;99.90;;;;;;4199205;28;20218;-80
2021/12/13 03:34:06;;;;;;;4.88;4.25;;;16.50;99.90;;;;;;4199377;28;20211;-79
2021/12/13 03:36:13;;;;;;;4.95;4.45;;;16.50;99.90;;;;;;4198819;28;20635;-80
2021/12/13 03:38:20;;;;;;;5.15;4.35;;;16.50;99.90;;;;;;4199359;28;20219;-80
2021/12/13 03:40:23;;;;;;;5.22;4.28;;;16.50;99.90;;;;;;4198902;28;20219;-80
2021/12/13 03:42:28;;;;;;;4.78;4.28;;;16.50;99.90;;;;;;4198640;28;21009;-79
2021/12/13 03:44:35;;;;;;;5.07;4.57;;;16.50;99.90;;;;;;4199226;28;20215;-80
2021/12/13 03:46:41;;;;;;;5.05;4.28;;;16.40;99.90;;;;;;4198596;28;20273;-79
2021/12/13 03:48:47;;;;;;;5.55;4.05;;;16.40;99.90;;;;;;4198720;28;21068;-79
2021/12/13 03:50:53;;;;;;;5.43;4.32;;;16.50;99.90;;;;;;4198641;28;20219;-79
2021/12/13 03:53:00;;;;;;;4.88;4.35;;;16.50;99.90;;;;;;4198881;28;20335;-80
2021/12/13 03:55:05;;;;;;;5.55;4.38;;;16.40;99.90;;;;;;4192844;28;20621;-79
2021/12/13 03:57:09;;;;;;;4.95;4.18;;;16.50;99.90;;;;;;4182219;28;21034;-79
2021/12/13 03:59:15;;;;;;;4.90;4.38;;;16.40;99.90;;;;;;4182587;28;20219;-80
2021/12/13 04:01:21;;;;;;;5.25;4.32;;;16.50;99.90;;;;;;4182300;28;20269;-79
2021/12/13 04:03:26;;;;;;;4.70;4.28;;;16.50;99.90;;;;;;4182156;28;20220;-79
2021/12/13 04:05:32;;;;;;;4.63;4.13;;;16.50;99.90;;;;;;4182326;28;20611;-80
2021/12/13 04:07:40;;;;;;;5.20;4.60;;;16.40;99.90;;;;;;4182414;28;20216;-80
2021/12/13 04:09:45;;;;;;;4.88;4.15;;;16.40;99.90;;;;;;4182497;28;20219;-80
2021/12/13 04:11:48;;;;;;;5.05;4.20;;;16.40;99.90;;;;;;4182315;28;20261;-79
2021/12/13 04:13:54;;;;;;;4.80;4.38;;;16.40;99.90;;;;;;4182419;28;20215;-80
2021/12/13 04:16:06;;;;;;;4.32;3.92;;;16.40;99.90;;;;;;4184433;28;20280;-80
2021/12/13 04:18:25;;;;;;;5.30;4.40;;;16.50;99.90;;;;;;4198645;28;20272;-80
2021/12/13 04:20:32;;;;;;;4.32;3.92;;;16.50;99.90;;;;;;4198591;28;20219;-79
2021/12/13 04:22:38;;;;;;;4.90;4.10;;;16.40;99.90;;;;;;4198326;28;20215;-80
2021/12/13 04:24:44;;;;;;;4.88;3.97;;;16.40;99.90;;;;;;4198308;28;20211;-80
2021/12/13 04:26:51;;;;;;;4.60;4.20;;;16.40;99.90;;;;;;4198408;28;20256;-80
2021/12/13 04:28:56;;;;;;;4.43;4.00;;;16.40;99.90;;;;;;4198805;28;20219;-80
2021/12/13 04:31:04;;;;;;;5.50;4.88;;;16.40;99.90;;;;;;4198193;28;20745;-80
2021/12/13 04:33:09;;;;;;;4.90;4.35;;;16.40;99.90;;;;;;4198284;28;20668;-79
2021/12/13 04:35:15;;;;;;;4.70;4.20;;;16.40;99.90;;;;;;4183898;28;20624;-80
2021/12/13 04:37:22;;;;;;;5.88;4.78;;;16.40;99.90;;;;;;4181713;28;20235;-79
2021/12/13 04:39:28;;;;;;;4.70;4.22;;;16.40;99.90;;;;;;4182100;28;20265;-79
2021/12/13 04:41:34;;;;;;;4.30;3.65;;;16.40;99.90;;;;;;4181798;28;20737;-80
2021/12/13 04:43:37;;;;;;;5.68;4.47;;;16.40;99.90;;;;;;4182411;28;20215;-79
2021/12/13 04:45:42;;;;;;;6.05;4.90;;;16.40;99.90;;;;;;4181704;28;20219;-80
2021/12/13 04:47:48;;;;;;;5.00;4.30;;;16.40;99.90;;;;;;4180978;28;20286;-79
2021/12/13 04:50:01;;;;;;;4.78;4.28;;;16.50;99.90;;;;;;4181700;28;20261;-79
2021/12/13 04:52:07;;;;;;;5.15;4.65;;;16.40;99.90;;;;;;4181223;28;20224;-80
2021/12/13 04:54:13;;;;;;;5.70;4.75;;;16.40;99.90;;;;;;4181287;28;20267;-80
2021/12/13 04:56:19;;;;;;;4.88;4.10;;;16.40;99.90;;;;;;4181589;28;20239;-80
2021/12/13 04:58:22;;;;;;;4.82;4.00;;;16.40;99.90;;;;;;4181469;28;20223;-80
2021/12/13 05:00:27;;;;;;;5.55;4.30;;;16.40;99.90;;;;;;4181259;28;20220;-80
2021/12/13 05:02:30;;;;;;;4.72;4.22;;;16.40;99.90;;;;;;4181839;28;20204;-80
2021/12/13 05:04:32;;;;;;;4.85;4.30;;;16.40;99.90;;;;;;4181745;28;20215;-80
2021/12/13 05:06:38;;;;;;;5.53;4.60;;;16.40;99.90;;;;;;4181646;28;20242;-80
2021/12/13 05:08:41;;;;;;;4.53;4.13;;;16.40;99.90;;;;;;4181285;28;20672;-80
2021/12/13 05:10:48;;;;;;;5.30;4.25;;;16.40;99.90;;;;;;4181504;28;20277;-79
2021/12/13 05:13:04;;;;;;;5.30;4.30;;;16.40;99.90;;;;;;4181645;28;20602;-79
2021/12/13 05:15:11;;;;;;;4.60;4.20;;;16.40;99.90;;;;;;4181371;28;20246;-79
2021/12/13 05:17:15;;;;;;;4.88;4.10;;;16.40;99.90;;;;;;4194884;28;20284;-80
2021/12/13 05:19:27;;;;;;;4.93;4.50;;;16.40;99.90;;;;;;4198073;28;20245;-80
2021/12/13 05:21:36;;;;;;;6.20;4.47;;;16.40;99.90;;;;;;4198315;28;20219;-79
2021/12/13 05:23:48;;;;;;;4.65;4.13;;;16.40;99.90;;;;;;4197770;28;20210;-80
2021/12/13 05:25:54;;;;;;;4.80;4.22;;;16.40;99.90;;;;;;4197849;28;20622;-79
2021/12/13 05:28:04;;;;;;;4.50;4.10;;;16.40;99.90;;;;;;4197921;28;20211;-80
2021/12/13 05:30:14;;;;;;;4.25;3.85;;;16.40;99.90;;;;;;4197795;28;20238;-80
2021/12/13 05:32:21;;;;;;;5.25;4.53;;;16.40;99.90;;;;;;4198032;28;20264;-80
2021/12/13 05:34:34;;;;;;;5.50;4.55;;;16.40;99.90;;;;;;4189336;28;20216;-79
2021/12/13 05:36:38;;;;;;;5.70;4.57;;;16.30;99.90;;;;;;4181165;28;20692;-80
2021/12/13 05:38:43;;;;;;;4.30;3.90;;;16.40;99.90;;;;;;4181429;28;20669;-79
2021/12/13 05:40:47;;;;;;;4.63;4.13;;;16.40;99.90;;;;;;4181282;28;20673;-79
2021/12/13 05:42:53;;;;;;;4.57;4.05;;;16.40;99.90;;;;;;4181837;28;20262;-79
2021/12/13 05:44:56;;;;;;;4.63;4.20;;;16.40;99.90;;;;;;4181511;28;20219;-79
2021/12/13 05:46:59;;;;;;;5.03;4.53;;;16.40;99.90;;;;;;4181616;28;20657;-79
2021/12/13 05:49:05;;;;;;;4.85;4.32;;;16.40;99.90;;;;;;4181212;28;20216;-79
2021/12/13 05:51:19;;;;;;;5.07;4.47;;;16.40;99.90;;;;;;4181204;28;20285;-79
2021/12/13 05:53:24;;;;;;;5.13;4.50;;;16.30;99.90;;;;;;4181050;28;20269;-80
2021/12/13 05:55:28;;;;;;;4.68;4.18;;;16.10;99.90;;;;;;4181301;28;20258;-79
2021/12/13 05:57:34;;;;;;;4.70;4.20;;;16.00;99.90;;;;;;4181206;28;20232;-79
2021/12/13 05:59:41;;;;;;;4.80;4.07;;;16.00;99.90;;;;;;4184216;28;20215;-79
2021/12/13 06:01:59;;;;;;;5.45;4.05;;;15.90;99.90;;;;;;4184444;28;20219;-79
2021/12/13 06:04:14;;;;;;;5.22;3.88;;;16.10;99.90;;;;;;4184053;28;20215;-79
2021/12/13 06:06:25;;;;;;;5.22;4.30;;;16.20;99.90;;;;;;4184091;28;20219;-80
2021/12/13 06:08:32;;;;;;;5.43;4.80;;;16.30;99.90;;;;;;4184393;28;20215;-79
2021/12/13 06:10:42;;;;;;;4.90;4.40;;;16.40;99.90;;;;;;4184244;28;20219;-80
2021/12/13 06:12:51;;;;;;;5.55;4.93;;;16.40;99.90;;;;;;4184087;28;20611;-80
2021/12/13 06:14:55;;;;;;;4.35;3.88;;;16.50;99.90;;;;;;4183942;28;20264;-80
2021/12/13 06:17:07;;;;;;;5.03;4.50;;;16.50;99.90;;;;;;4195397;28;20284;-79
2021/12/13 06:19:16;;;;;;;6.38;4.82;;;16.60;99.90;;;;;;4200547;28;20215;-80
2021/12/13 06:21:30;;;;;;;5.07;4.35;;;16.60;99.90;;;;;;4200415;28;21044;-79
2021/12/13 06:23:37;;;;;;;4.70;4.20;;;16.60;99.90;;;;;;4200296;28;20211;-80
2021/12/13 06:25:44;;;;;;;5.10;4.32;;;16.60;99.90;;;;;;4200204;28;20664;-80
2021/12/13 06:27:49;;;;;;;5.22;4.18;;;16.60;99.90;;;;;;4200225;28;20211;-80
2021/12/13 06:30:11;;;;;;;4.90;4.03;;;16.60;99.90;;;;;;4200272;28;20227;-80
2021/12/13 06:32:26;;;;;;;4.65;3.67;;;16.60;99.90;;;;;;4200106;28;20666;-79
2021/12/13 06:34:29;;;;;;;4.00;3.60;;;16.70;99.90;;;;;;4190985;28;20215;-80
2021/12/13 06:36:35;;;;;;;5.18;3.75;;;16.70;99.90;;;;;;4183847;28;20738;-79
2021/12/13 06:38:43;;;;;;;5.45;4.25;;;16.70;99.90;;;;;;4183903;28;20247;-80
2021/12/13 06:40:49;;;;;;;4.57;3.95;;;16.70;99.90;;;;;;4184600;28;20211;-80
2021/12/13 06:42:51;;;;;;;4.53;3.90;;;16.70;99.90;;;;;;4183646;28;20219;-80
2021/12/13 06:44:54;;;;;;;4.15;3.65;;;16.70;99.90;;;;;;4183679;28;20224;-80
2021/12/13 06:47:01;;;;;;;4.97;4.22;;;16.70;99.90;;;;;;4183644;28;20216;-79
2021/12/13 06:49:12;;;;;;;4.50;4.10;;;16.70;99.90;;;;;;4183110;28;20721;-79
2021/12/13 06:51:17;;;;;;;5.60;3.80;;;16.80;99.90;;;;;;4183340;28;20265;-80
2021/12/13 06:53:21;;;;;;;3.90;3.50;;;16.80;99.90;;;;;;4182944;28;20668;-79
2021/12/13 06:55:25;;;;;;;4.40;3.65;;;16.80;99.90;;;;;;4183303;28;20215;-79
2021/12/13 06:57:35;;;;;;;4.40;3.35;;;16.80;99.90;;;;;;4183154;28;20239;-79
2021/12/13 06:59:45;;;;;;;3.80;3.20;;;16.80;99.90;;;;;;4183178;28;20262;-79
2021/12/13 07:02:02;;;;;;;3.97;3.50;;;16.80;99.90;;;;;;4183385;28;20730;-80
2021/12/13 07:04:07;;;;;;;5.13;3.60;;;16.80;99.90;;;;;;4183329;28;20220;-79
2021/12/13 07:06:09;;;;;;;4.60;3.40;;;16.80;99.90;;;;;;4183249;28;20684;-79
2021/12/13 07:08:19;;;;;;;4.68;3.50;;;16.80;99.90;;;;;;4183000;28;20253;-80
2021/12/13 07:10:24;;;;;;;4.32;3.65;;;16.80;99.90;;;;;;4181886;28;20266;-79
2021/12/13 07:12:29;;;;;;;4.38;3.58;;;16.80;99.90;;;;;;4183107;28;20269;-79
2021/12/13 07:14:37;;;;;;;4.10;3.40;;;16.90;99.90;;;;;;4183035;28;20261;-79
2021/12/13 07:16:39;;;;;;;3.33;2.90;;;16.90;99.90;;;;;;4191428;28;20264;-79
2021/12/13 07:18:48;;;;;;;3.38;2.92;;;16.90;99.90;;;;;;4199258;28;20277;-79
2021/12/13 07:20:53;;;;;;;3.92;3.40;;;16.90;99.90;;;;;;4199369;28;20268;-79
2021/12/13 07:22:57;;;;;;;4.10;3.30;;;16.90;99.90;;;;;;4199017;28;20215;-80
2021/12/13 07:25:08;;;;;;;3.50;3.15;;;16.90;99.90;;;;;;4199627;28;20218;-80
2021/12/13 07:27:13;;;;;;;3.50;2.97;;;16.90;99.90;;;;;;4199662;28;20260;-79
2021/12/13 07:29:21;;;;;;;3.63;2.85;;;16.90;99.90;;;;;;4199289;28;20227;-80
2021/12/13 07:31:24;;;;;;;3.15;2.80;;;16.90;99.90;;;;;;4199107;28;20231;-79
2021/12/13 07:33:36;;;;;;;3.30;2.85;;;17.00;99.90;;;;;;4198695;28;20268;-79
2021/12/13 07:35:43;;;;;;;3.75;2.92;;;17.00;99.90;;;;;;4199145;28;20264;-79
2021/12/13 07:37:49;;;;;;;3.85;2.90;;;17.00;99.90;;;;;;4198788;28;20239;-79
2021/12/13 07:39:51;;;;;;;2.80;2.60;;;17.00;99.90;;;;;;4198946;28;20215;-80
2021/12/13 07:41:58;;;;;;;3.22;2.72;;;17.00;99.90;;;;;;4198835;28;20223;-80
2021/12/13 07:44:00;;;;;;;2.85;2.50;;;17.00;99.90;;;;;;4198677;28;20215;-79
2021/12/13 07:46:06;;;;;;;2.88;2.58;;;17.00;99.90;;;;;;4198734;28;20333;-80
2021/12/13 07:48:12;;;;;;;4.72;3.05;;;17.00;99.90;;;;;;4198702;28;20211;-79
2021/12/13 07:50:15;;;;;;;3.78;3.22;;;17.00;99.90;;;;;;4198729;28;20250;-80
2021/12/13 07:52:28;;;;;;;4.25;3.00;;;17.10;99.90;;;;;;4191777;28;20289;-79
2021/12/13 07:54:39;;;;;;;5.00;3.00;;;17.00;99.90;;;;;;4181689;28;20220;-79
2021/12/13 07:56:47;;;;;;;3.92;3.20;;;17.10;99.90;;;;;;4198256;28;20206;-79
2021/12/13 07:59:01;;;;;;;4.13;2.65;;;17.10;99.90;;;;;;4197971;28;20620;-78
2021/12/13 08:01:17;;;;;;;7.47;3.03;;;17.20;99.90;;;;;;4188442;28;20976;-77
2021/12/13 08:03:26;;;;;;;7.00;2.90;;;17.10;99.90;;;;;;4189528;28;20250;-79
2021/12/13 08:05:32;;;;;;;5.75;3.00;;;17.20;99.90;;;;;;4191321;28;20219;-79
2021/12/13 08:07:42;;;;;;;4.25;2.47;;;17.20;99.90;;;;;;4190583;28;20211;-80
2021/12/13 08:09:47;;;;;;;3.03;2.72;;;17.30;99.90;;;;;;4191511;28;20215;-79
2021/12/13 08:11:52;;;;;;;3.47;2.88;;;17.40;99.90;;;;;;4188943;28;20265;-79
2021/12/13 08:14:00;;;;;;;6.05;3.00;;;17.40;99.90;;;;;;4184789;28;20269;-78
2021/12/13 08:16:06;;;;;;;3.08;2.47;;;17.40;99.90;;;;;;4191411;28;20598;-78
2021/12/13 08:18:11;;;;;;;3.22;2.53;;;17.50;99.90;;;;;;4193713;28;20238;-80
2021/12/13 08:20:21;;;;;;;3.95;2.67;;;17.50;99.90;;;;;;4183664;28;21004;-77
2021/12/13 08:22:28;;;;;;;3.70;2.70;;;17.50;99.90;;;;;;4189181;28;20218;-77
2021/12/13 08:24:41;;;;;;;3.65;2.90;;;17.50;99.90;;;;;;4188329;28;20206;-79
2021/12/13 08:26:45;;;;;;;3.13;2.80;;;17.60;99.90;;;;;;4189069;28;20555;-77
2021/12/13 08:28:51;;;;;;;7.57;2.78;;;17.70;99.90;;;;;;4190326;28;20223;-76
2021/12/13 08:30:56;;;;;;;6.80;2.60;;;17.70;99.90;;;;;;4190839;28;21012;-77
2021/12/13 08:33:05;;;;;;;3.42;2.53;;;17.80;99.90;;;;;;4190323;28;20284;-78
2021/12/13 08:35:08;;;;;;;4.95;2.78;;;17.70;99.90;;;;;;4186261;28;20218;-75
2021/12/13 08:37:14;;;;;;;3.35;2.65;;;17.80;99.90;;;;;;4192115;28;20617;-76
2021/12/13 08:39:19;;;;;;;5.50;2.80;;;17.90;99.90;;;;;;4189083;28;20651;-77
2021/12/13 08:41:28;;;;;;;3.13;2.47;;;17.90;99.90;;;;;;4189254;28;20219;-79
2021/12/13 08:43:36;;;;;;;3.65;2.13;;;17.90;99.90;;;;;;4188469;28;20547;-77
2021/12/13 08:45:41;;;;;;;4.03;2.40;;;18.00;99.90;;;;;;4192207;28;20222;-77
2021/12/13 08:47:47;;;;;;;4.88;2.92;;;18.10;99.90;;;;;;4191706;28;20257;-76
2021/12/13 08:49:52;;;;;;;3.22;2.70;;;18.10;99.90;;;;;;4184610;28;20262;-77
2021/12/13 08:52:04;;;;;;;4.70;2.63;;;18.20;99.90;;;;;;4184466;28;20219;-76
2021/12/13 08:54:10;;;;;;;2.88;2.28;;;18.20;99.90;;;;;;4186870;28;20268;-75
2021/12/13 08:56:20;;;;;;;4.90;2.40;;;18.20;99.90;;;;;;4192565;28;20277;-76
2021/12/13 08:58:24;;;;;;;4.85;2.40;;;18.20;99.90;;;;;;4191474;28;20246;-77
2021/12/13 09:00:47;;;;;;;3.10;2.30;;;18.30;99.90;;;;;;4190456;28;20210;-77
2021/12/13 09:02:55;;;;;;;14.13;2.72;;;18.30;99.90;;;;;;4193550;28;20260;-77
2021/12/13 09:05:01;;;;;;;6.82;2.65;;;18.40;99.90;;;;;;4190404;28;20223;-77
2021/12/13 09:07:07;;;;;;;4.03;2.45;;;18.40;99.90;;;;;;4191778;28;20732;-76
2021/12/13 09:09:14;;;;;;;3.95;2.47;;;18.40;99.90;;;;;;4186901;28;20216;-78
2021/12/13 09:11:23;;;;;;;3.97;2.83;;;18.50;99.90;;;;;;4183830;28;21529;-79
2021/12/13 09:13:39;;;;;;;5.75;2.13;;;18.50;99.90;;;;;;4184382;28;20268;-79
2021/12/13 09:15:43;;;;;;;7.20;2.67;;;18.50;99.90;;;;;;4192177;28;20211;-78
2021/12/13 09:17:48;;;;;;;4.07;2.30;;;18.50;99.90;;;;;;4186685;28;20535;-80
2021/12/13 09:19:55;;;;;;;3.13;2.30;;;18.50;99.90;;;;;;4185795;28;20239;-80
2021/12/13 09:22:01;;;;;;;2.72;2.08;;;18.40;99.90;;;;;;4195616;28;20260;-80
2021/12/13 09:24:04;;;;;;;2.88;2.30;;;18.40;99.90;;;;;;4189199;28;20591;-77
2021/12/13 09:26:10;;;;;;;3.22;2.10;;;18.50;99.90;;;;;;4189601;28;20219;-78
2021/12/13 09:28:16;;;;;;;4.75;2.45;;;18.50;99.90;;;;;;4188864;28;20211;-80
2021/12/13 09:30:36;;;;;;;12.88;2.95;;;18.50;99.90;;;;;;4187755;28;20243;-77
2021/12/13 09:32:41;;;;;;;5.30;2.70;;;18.60;99.90;;;;;;4187132;28;20215;-78
2021/12/13 09:34:45;;;;;;;5.50;2.30;;;18.60;99.90;;;;;;4189962;28;20218;-78
2021/12/13 09:36:50;;;;;;;8.32;2.63;;;18.50;99.90;;;;;;4197088;28;20274;-80
2021/12/13 09:38:58;;;;;;;7.68;2.40;;;18.50;99.90;;;;;;4187545;28;20240;-77
2021/12/13 09:41:12;;;;;;;3.70;2.28;;;18.50;99.90;;;;;;4188335;28;20307;-80
2021/12/13 09:43:15;;;;;;;3.97;2.30;;;18.60;99.90;;;;;;4192429;28;20211;-80
2021/12/13 09:45:25;;;;;;;10.85;3.47;;;18.70;99.90;;;;;;4194518;28;20219;-81
2021/12/13 09:47:35;;;;;;;15.10;3.20;;;18.70;99.90;;;;;;4195531;28;20219;-79
2021/12/13 09:49:41;;;;;;;8.18;2.53;;;18.60;99.90;;;;;;4192792;28;20210;-78
2021/12/13 09:51:48;;;;;;;12.80;2.60;;;18.70;99.90;;;;;;4196090;28;20211;-79
2021/12/13 09:53:55;;;;;;;31.05;4.22;;;18.70;99.90;;;;;;4194565;28;20651;-79
2021/12/13 09:56:03;;;;;;;10.48;2.28;;;18.70;99.90;;;;;;4192019;28;20257;-79
2021/12/13 09:58:10;;;;;;;6.05;2.50;;;18.80;99.90;;;;;;4193163;28;20218;-80
2021/12/13 10:00:24;;;;;;;5.72;2.45;;;18.90;99.90;;;;;;4198902;28;20234;-83
2021/12/13 10:02:29;;;;;;;14.80;2.90;;;19.00;99.90;;;;;;4193001;28;20211;-82
2021/12/13 10:04:38;;;;;;;16.02;3.50;;;19.20;99.90;;;;;;4197841;28;20207;-83
2021/12/13 10:06:49;;;;;;;18.15;4.00;;;19.20;99.90;;;;;;4193282;28;20215;-80
2021/12/13 10:08:55;;;;;;;11.82;3.35;;;19.40;99.90;;;;;;4195837;28;20223;-78
2021/12/13 10:11:02;;;;;;;14.18;3.42;;;19.40;99.90;;;;;;4194470;28;20849;-80
2021/12/13 10:13:10;;;;;;;10.65;2.42;;;19.40;99.90;;;;;;4196292;28;20231;-80
2021/12/13 10:15:16;;;;;;;7.70;2.60;;;19.50;99.90;;;;;;4197806;28;20218;-79
2021/12/13 10:17:23;;;;;;;7.60;2.65;;;19.60;99.90;;;;;;4192705;28;20258;-78
2021/12/13 10:19:29;;;;;;;10.18;2.97;;;19.70;99.90;;;;;;4185949;28;20234;-78
2021/12/13 10:21:36;;;;;;;6.45;2.70;;;19.60;99.90;;;;;;4187658;28;20269;-78
2021/12/13 10:23:42;;;;;;;10.48;2.50;;;19.70;99.90;;;;;;4189365;28;20219;-79
2021/12/13 10:25:47;;;;;;;4.00;2.22;;;19.70;99.90;;;;;;4193603;28;20215;-80
2021/12/13 10:27:50;;;;;;;20.17;4.15;;;19.80;99.90;;;;;;4192521;28;20664;-79
2021/12/13 10:29:55;;;;;;;15.68;2.90;;;19.70;99.90;;;;;;4192484;28;20562;-77
2021/12/13 10:32:00;;;;;;;14.50;3.40;;;19.80;99.90;;;;;;4191464;28;20223;-79
2021/12/13 10:34:08;;;;;;;6.75;2.85;;;19.80;99.90;;;;;;4193125;28;20256;-78
2021/12/13 10:36:11;;;;;;;6.15;2.67;;;19.90;99.90;;;;;;4189524;28;20214;-79
2021/12/13 10:38:18;;;;;;;6.22;2.35;;;20.00;99.90;;;;;;4192291;28;20215;-78
2021/12/13 10:40:27;;;;;;;8.88;3.00;;;20.10;99.90;;;;;;4193368;28;20260;-79
2021/12/13 10:42:33;;;;;;;6.53;2.55;;;20.10;99.90;;;;;;4191604;28;20265;-78
2021/12/13 10:44:38;;;;;;;7.47;2.63;;;20.10;99.90;;;;;;4192720;28;20219;-78
2021/12/13 10:46:45;;;;;;;8.85;2.53;;;20.10;99.90;;;;;;4192794;28;20215;-78
2021/12/13 10:48:54;;;;;;;6.60;2.35;;;20.10;99.90;;;;;;4188177;28;20208;-80
2021/12/13 10:51:02;;;;;;;5.20;2.80;;;20.20;99.90;;;;;;4192069;28;20252;-79
2021/12/13 10:53:07;;;;;;;11.68;2.70;;;20.20;99.90;;;;;;4195541;28;20249;-77
2021/12/13 10:55:16;;;;;;;6.18;2.47;;;20.20;99.90;;;;;;4195691;28;20265;-80
2021/12/13 10:57:21;;;;;;;7.15;2.42;;;20.30;99.90;;;;;;4193927;28;20215;-80
2021/12/13 10:59:27;;;;;;;5.90;2.55;;;20.30;99.90;;;;;;4195125;28;20227;-78
2021/12/13 11:01:34;;;;;;;8.55;2.80;;;20.30;99.90;;;;;;4191771;28;20648;-79
2021/12/13 11:03:37;;;;;;;5.22;2.28;;;20.30;99.90;;;;;;4189483;28;20211;-79